createdAt,value
2022-11-03T00:01:48.920Z,1.17
2022-11-03T00:04:19.256Z,1.13
2022-11-03T00:06:48.581Z,1.70
2022-11-03T00:09:17.203Z,1.30
2022-11-03T00:11:45.615Z,1.50
2022-11-03T00:14:14.505Z,1.70
2022-11-03T00:16:41.330Z,1.33
2022-11-03T00:19:09.097Z,1.33
2022-11-03T00:21:36.021Z,1.40
2022-11-03T00:24:03.891Z,1.13
2022-11-03T00:26:32.980Z,1.20
2022-11-03T00:29:01.899Z,1.67
2022-11-03T00:31:30.478Z,1.10
2022-11-03T00:33:58.350Z,1.98
2022-11-03T00:36:42.105Z,1.48
2022-11-03T00:39:09.612Z,1.27
2022-11-03T00:41:36.362Z,1.63
2022-11-03T00:44:03.222Z,1.65
2022-11-03T00:46:35.399Z,1.58
2022-11-03T00:49:03.724Z,1.30
2022-11-03T00:51:30.668Z,1.25
2022-11-03T00:54:02.134Z,1.42
2022-11-03T00:56:31.794Z,1.33
2022-11-03T00:59:00.160Z,1.52
2022-11-03T01:01:31.233Z,1.00
2022-11-03T01:04:17.612Z,1.05
2022-11-03T01:06:51.949Z,1.58
2022-11-03T01:09:18.538Z,1.13
2022-11-03T01:12:01.270Z,1.33
2022-11-03T01:14:31.966Z,1.40
2022-11-03T01:16:58.969Z,1.58
2022-11-03T01:19:25.882Z,1.83
2022-11-03T01:21:53.727Z,1.42
2022-11-03T01:24:20.991Z,2.00
2022-11-03T01:26:47.692Z,1.02
2022-11-03T01:29:14.551Z,1.40
2022-11-03T01:31:41.207Z,1.10
2022-11-03T01:34:12.282Z,1.30
2022-11-03T01:36:38.886Z,1.00
2022-11-03T01:39:05.464Z,1.85
2022-11-03T01:41:32.109Z,1.60
2022-11-03T01:44:08.028Z,1.38
2022-11-03T01:46:47.907Z,1.33
2022-11-03T01:49:39.881Z,1.30
2022-11-03T01:52:16.261Z,1.23
2022-11-03T01:54:46.272Z,1.20
2022-11-03T01:57:18.624Z,1.88
2022-11-03T01:59:48.101Z,1.67
2022-11-03T02:02:23.468Z,1.45
2022-11-03T02:04:50.135Z,1.50
2022-11-03T02:07:32.607Z,1.77
2022-11-03T02:09:59.888Z,1.33
2022-11-03T02:12:26.541Z,1.10
2022-11-03T02:15:00.460Z,1.65
2022-11-03T02:17:30.007Z,1.58
2022-11-03T02:20:05.875Z,1.52
2022-11-03T02:22:41.064Z,1.50
2022-11-03T02:25:29.447Z,1.30
2022-11-03T02:27:56.472Z,1.38
2022-11-03T02:30:23.209Z,1.48
2022-11-03T02:33:04.208Z,1.80
2022-11-03T02:35:38.057Z,1.30
2022-11-03T02:38:09.179Z,1.35
2022-11-03T02:40:40.924Z,1.95
2022-11-03T02:43:09.791Z,1.85
2022-11-03T02:45:38.388Z,1.63
2022-11-03T02:48:06.797Z,1.77
2022-11-03T02:50:34.813Z,1.30
2022-11-03T02:53:01.719Z,1.73
2022-11-03T02:55:48.802Z,1.88
2022-11-03T02:58:40.545Z,1.58
2022-11-03T03:01:11.876Z,1.75
2022-11-03T03:03:48.064Z,1.60
2022-11-03T03:06:37.658Z,1.70
2022-11-03T03:09:09.999Z,1.55
2022-11-03T03:11:41.167Z,2.20
2022-11-03T03:14:25.349Z,1.60
2022-11-03T03:17:05.215Z,1.90
2022-11-03T03:19:34.610Z,1.58
2022-11-03T03:22:09.860Z,1.60
2022-11-03T03:24:52.331Z,1.75
2022-11-03T03:27:23.434Z,1.88
2022-11-03T03:30:06.163Z,1.83
2022-11-03T03:32:38.356Z,1.83
2022-11-03T03:35:09.620Z,1.48
2022-11-03T03:37:39.317Z,1.60
2022-11-03T03:40:10.532Z,1.80
2022-11-03T03:42:38.475Z,1.63
2022-11-03T03:45:07.451Z,1.50
2022-11-03T03:47:34.978Z,1.63
2022-11-03T03:50:01.854Z,1.58
2022-11-03T03:52:29.370Z,1.75
2022-11-03T03:54:56.469Z,1.35
2022-11-03T03:57:25.188Z,1.83
2022-11-03T03:59:51.871Z,1.73
2022-11-03T04:02:18.684Z,1.60
2022-11-03T04:04:45.392Z,1.27
2022-11-03T04:07:30.946Z,1.85
2022-11-03T04:09:57.556Z,1.40
2022-11-03T04:12:42.929Z,1.42
2022-11-03T04:15:32.277Z,2.42
2022-11-03T04:18:17.786Z,1.75
2022-11-03T04:21:03.239Z,1.58
2022-11-03T04:23:30.094Z,1.38
2022-11-03T04:25:57.740Z,1.42
2022-11-03T04:28:25.570Z,1.15
2022-11-03T04:30:54.759Z,1.17
2022-11-03T04:33:25.283Z,1.58
2022-11-03T04:35:54.092Z,1.45
2022-11-03T04:38:23.656Z,1.20
2022-11-03T04:40:54.788Z,1.27
2022-11-03T04:43:29.209Z,1.40
2022-11-03T04:45:55.806Z,1.40
2022-11-03T04:48:23.050Z,1.50
2022-11-03T04:50:53.502Z,1.33
2022-11-03T04:53:21.902Z,1.50
2022-11-03T04:55:51.242Z,1.38
2022-11-03T04:58:26.369Z,1.15
2022-11-03T05:00:56.533Z,1.70
2022-11-03T05:03:30.205Z,1.40
2022-11-03T05:05:57.555Z,1.30
2022-11-03T05:08:24.840Z,1.40
2022-11-03T05:10:51.441Z,1.17
2022-11-03T05:13:25.804Z,1.65
2022-11-03T05:15:57.592Z,1.65
2022-11-03T05:18:33.120Z,1.85
2022-11-03T05:21:03.703Z,1.33
2022-11-03T05:23:37.079Z,1.30
2022-11-03T05:26:07.133Z,1.38
2022-11-03T05:28:38.868Z,1.45
2022-11-03T05:31:22.114Z,1.33
2022-11-03T05:33:49.796Z,1.58
2022-11-03T05:36:22.543Z,1.30
2022-11-03T05:38:49.938Z,1.63
2022-11-03T05:41:22.649Z,1.95
2022-11-03T05:43:53.587Z,1.33
2022-11-03T05:46:20.194Z,1.85
2022-11-03T05:48:47.024Z,1.50
2022-11-03T05:51:33.975Z,1.48
2022-11-03T05:54:04.315Z,2.10
2022-11-03T05:56:32.995Z,1.83
2022-11-03T05:59:01.229Z,1.63
2022-11-03T06:01:36.368Z,1.40
2022-11-03T06:04:28.510Z,1.60
2022-11-03T06:07:30.103Z,1.25
2022-11-03T06:09:58.352Z,1.40
2022-11-03T06:12:26.068Z,1.50
2022-11-03T06:14:53.142Z,1.40
2022-11-03T06:17:23.134Z,1.38
2022-11-03T06:19:52.417Z,1.40
2022-11-03T06:22:24.446Z,1.85
2022-11-03T06:24:55.847Z,1.35
2022-11-03T06:27:23.702Z,1.42
2022-11-03T06:29:59.408Z,1.40
2022-11-03T06:32:27.766Z,1.40
2022-11-03T06:34:57.439Z,1.75
2022-11-03T06:37:34.623Z,1.27
2022-11-03T06:40:10.561Z,1.50
2022-11-03T06:42:41.431Z,1.77
2022-11-03T06:45:24.389Z,1.40
2022-11-03T06:47:53.512Z,1.55
2022-11-03T06:50:29.328Z,1.30
2022-11-03T06:52:57.289Z,2.45
2022-11-03T06:55:29.504Z,1.27
2022-11-03T06:58:12.181Z,1.40
2022-11-03T07:00:42.107Z,1.55
2022-11-03T07:03:33.021Z,1.60
2022-11-03T07:06:13.905Z,1.85
2022-11-03T07:08:46.743Z,1.58
2022-11-03T07:11:27.872Z,1.33
2022-11-03T07:14:02.831Z,1.27
2022-11-03T07:16:37.212Z,1.55
2022-11-03T07:19:07.456Z,1.38
2022-11-03T07:21:43.810Z,1.42
2022-11-03T07:24:23.891Z,1.30
2022-11-03T07:27:21.810Z,1.20
2022-11-03T07:29:50.557Z,1.50
2022-11-03T07:32:23.813Z,1.63
2022-11-03T07:34:53.241Z,1.48
2022-11-03T07:37:25.797Z,1.75
2022-11-03T07:39:53.246Z,1.50
2022-11-03T07:42:22.692Z,2.00
2022-11-03T07:44:53.083Z,1.48
2022-11-03T07:47:21.821Z,1.42
2022-11-03T07:49:48.881Z,1.92
2022-11-03T07:52:19.794Z,1.45
2022-11-03T07:54:46.860Z,1.45
2022-11-03T07:57:22.735Z,1.30
2022-11-03T07:59:51.904Z,1.65
2022-11-03T08:02:42.031Z,1.77
2022-11-03T08:05:09.121Z,1.42
2022-11-03T08:07:35.746Z,1.60
2022-11-03T08:10:02.396Z,1.55
2022-11-03T08:12:29.032Z,1.35
2022-11-03T08:14:55.620Z,1.65
2022-11-03T08:17:22.312Z,1.48
2022-11-03T08:19:48.889Z,1.30
2022-11-03T08:22:15.505Z,1.85
2022-11-03T08:24:42.093Z,1.40
2022-11-03T08:27:08.740Z,1.45
2022-11-03T08:29:35.621Z,1.50
2022-11-03T08:32:02.344Z,1.45
2022-11-03T08:34:29.187Z,1.55
2022-11-03T08:36:55.784Z,1.52
2022-11-03T08:39:22.780Z,1.40
2022-11-03T08:41:49.368Z,1.60
2022-11-03T08:44:15.976Z,1.35
2022-11-03T08:46:42.650Z,1.40
2022-11-03T08:49:09.256Z,1.27
2022-11-03T08:51:40.102Z,1.42
2022-11-03T08:54:09.968Z,1.70
2022-11-03T08:56:36.571Z,1.45
2022-11-03T08:59:03.211Z,1.95
2022-11-03T09:01:29.967Z,1.60
2022-11-03T09:03:56.708Z,2.08
2022-11-03T09:06:23.384Z,1.40
2022-11-03T09:11:36.608Z,1.30
2022-11-03T09:14:03.884Z,1.50
2022-11-03T09:16:30.466Z,1.80
2022-11-03T09:18:57.109Z,1.67
2022-11-03T09:21:23.701Z,1.30
2022-11-03T09:23:50.421Z,1.55
2022-11-03T09:26:17.062Z,1.27
2022-11-03T09:28:43.795Z,1.75
2022-11-03T09:31:10.423Z,1.63
2022-11-03T09:33:37.111Z,1.58
2022-11-03T09:36:03.929Z,1.70
2022-11-03T09:38:30.572Z,1.58
2022-11-03T09:40:57.276Z,1.52
2022-11-03T09:43:23.988Z,1.13
2022-11-03T09:45:50.775Z,1.40
2022-11-03T09:48:17.421Z,1.40
2022-11-03T09:50:44.257Z,1.55
2022-11-03T09:53:12.217Z,2.30
2022-11-03T09:55:39.834Z,1.77
2022-11-03T09:58:14.279Z,1.55
2022-11-03T10:00:40.986Z,1.60
2022-11-03T10:03:12.022Z,1.42
2022-11-03T10:05:39.702Z,1.40
2022-11-03T10:08:18.420Z,1.42
2022-11-03T10:10:50.110Z,1.40
2022-11-03T10:13:33.146Z,1.42
2022-11-03T10:16:01.776Z,1.50
2022-11-03T10:18:29.085Z,1.42
2022-11-03T10:21:05.355Z,1.27
2022-11-03T10:23:32.213Z,1.80
2022-11-03T10:26:12.467Z,1.33
2022-11-03T10:28:40.252Z,1.50
2022-11-03T10:31:19.288Z,1.83
2022-11-03T10:33:54.546Z,1.27
2022-11-03T10:36:27.227Z,2.05
2022-11-03T10:38:54.412Z,1.38
2022-11-03T10:41:26.863Z,1.60
2022-11-03T10:44:11.752Z,1.40
2022-11-03T10:46:59.785Z,0.95
2022-11-03T10:49:29.134Z,1.52
2022-11-03T10:52:06.019Z,1.50
2022-11-03T10:54:35.450Z,1.50
2022-11-03T10:57:02.398Z,1.42
2022-11-03T10:59:34.724Z,1.40
2022-11-03T11:02:01.889Z,1.00
2022-11-03T11:04:29.007Z,1.40
2022-11-03T11:06:55.816Z,1.10
2022-11-03T11:09:27.647Z,1.30
2022-11-03T11:12:16.443Z,1.15
2022-11-03T11:14:56.219Z,1.27
2022-11-03T11:17:55.263Z,1.25
2022-11-03T11:20:34.273Z,1.20
2022-11-03T11:23:29.024Z,1.10
2022-11-03T11:26:10.988Z,1.10
2022-11-03T11:28:46.237Z,1.08
2022-11-03T11:31:28.015Z,1.13
2022-11-03T11:34:09.970Z,1.38
2022-11-03T11:36:41.738Z,1.30
2022-11-03T11:39:20.334Z,1.70
2022-11-03T11:42:15.109Z,1.02
2022-11-03T11:44:54.656Z,1.13
2022-11-03T11:47:45.149Z,1.23
2022-11-03T11:50:23.685Z,0.90
2022-11-03T11:52:58.170Z,1.02
2022-11-03T11:55:24.758Z,1.73
2022-11-03T11:57:53.069Z,1.10
2022-11-03T12:00:53.509Z,1.25
2022-11-03T12:03:26.407Z,0.98
2022-11-03T12:05:53.187Z,0.90
2022-11-03T12:08:24.458Z,1.42
2022-11-03T12:11:11.879Z,1.10
2022-11-03T12:13:44.776Z,1.05
2022-11-03T12:16:30.162Z,1.73
2022-11-03T12:18:59.816Z,1.20
2022-11-03T12:21:49.541Z,1.35
2022-11-03T12:24:26.734Z,0.95
2022-11-03T12:26:53.537Z,1.17
2022-11-03T12:29:20.126Z,1.30
2022-11-03T12:31:47.592Z,1.38
2022-11-03T12:34:14.272Z,1.17
2022-11-03T12:36:40.930Z,1.25
2022-11-03T12:39:07.539Z,1.40
2022-11-03T12:41:34.172Z,1.20
2022-11-03T12:44:00.830Z,1.10
2022-11-03T12:46:27.801Z,1.13
2022-11-03T12:48:54.459Z,1.73
2022-11-03T12:51:22.853Z,1.63
2022-11-03T12:53:50.118Z,1.48
2022-11-03T12:56:17.990Z,1.38
2022-11-03T12:58:44.905Z,1.20
2022-11-03T13:01:12.078Z,1.35
2022-11-03T13:03:38.800Z,1.45
2022-11-03T13:06:09.836Z,1.45
2022-11-03T13:08:37.234Z,1.20
2022-11-03T13:11:04.166Z,1.23
2022-11-03T13:13:31.437Z,1.20
2022-11-03T13:15:58.058Z,1.08
2022-11-03T13:18:24.662Z,1.70
2022-11-03T13:20:51.286Z,2.13
2022-11-03T13:23:20.457Z,1.42
2022-11-03T13:25:49.726Z,1.20
2022-11-03T13:28:16.368Z,1.02
2022-11-03T13:30:42.992Z,1.42
2022-11-03T13:33:09.894Z,1.20
2022-11-03T13:35:36.871Z,1.30
2022-11-03T13:38:03.550Z,1.15
2022-11-03T13:43:16.804Z,1.65
2022-11-03T13:45:43.434Z,1.25
2022-11-03T13:50:56.939Z,1.20
2022-11-03T13:56:16.917Z,1.35
2022-11-03T14:07:11.410Z,1.05
2022-11-03T14:09:38.365Z,1.00
2022-11-03T14:12:23.962Z,1.02
2022-11-03T14:14:50.574Z,1.25
2022-11-03T14:17:17.185Z,1.90
2022-11-03T14:19:47.512Z,1.10
2022-11-03T14:22:20.305Z,0.80
2022-11-03T14:24:47.046Z,0.68
2022-11-03T14:27:15.942Z,0.82
2022-11-03T14:29:49.094Z,0.93
2022-11-03T14:32:16.601Z,0.88
2022-11-03T14:34:47.561Z,0.95
2022-11-03T14:37:15.114Z,0.80
2022-11-03T14:39:42.098Z,1.13
2022-11-03T14:42:15.022Z,0.88
2022-11-03T14:44:42.477Z,0.90
2022-11-03T14:47:11.360Z,0.57
2022-11-03T14:49:38.281Z,0.90
2022-11-03T14:52:07.143Z,0.80
2022-11-03T14:54:34.767Z,0.90
2022-11-03T14:57:01.922Z,0.95
2022-11-03T14:59:28.742Z,0.90
2022-11-03T15:01:56.511Z,0.80
2022-11-03T15:04:23.261Z,1.00
2022-11-03T15:06:50.319Z,0.85
2022-11-03T15:09:18.036Z,1.08
2022-11-03T15:11:44.745Z,1.10
2022-11-03T15:14:12.042Z,0.80
2022-11-03T15:16:39.608Z,0.75
2022-11-03T15:19:07.292Z,0.80
2022-11-03T15:21:34.022Z,0.90
2022-11-03T15:26:47.736Z,0.77
2022-11-03T15:29:14.554Z,1.10
2022-11-03T15:31:47.132Z,0.90
2022-11-03T15:34:14.597Z,1.75
2022-11-03T15:36:41.331Z,1.15
2022-11-03T15:39:07.982Z,0.85
2022-11-03T15:41:34.603Z,0.80
2022-11-03T15:44:01.334Z,0.70
2022-11-03T15:46:27.927Z,1.02
2022-11-03T15:48:56.383Z,1.20
2022-11-03T15:51:23.185Z,1.00
2022-11-03T15:53:54.956Z,1.05
2022-11-03T15:56:23.521Z,1.30
2022-11-03T15:58:50.571Z,1.15
2022-11-03T16:01:17.447Z,0.95
2022-11-03T16:03:44.194Z,1.30
2022-11-03T16:06:10.933Z,1.20
2022-11-03T16:08:38.119Z,2.35
2022-11-03T16:11:04.836Z,5.68
2022-11-03T16:13:31.430Z,2.88
2022-11-03T16:15:58.218Z,3.33
2022-11-03T16:18:24.940Z,10.50
2022-11-03T16:20:51.632Z,4.95
2022-11-03T16:23:18.241Z,2.67
2022-11-03T16:25:44.862Z,1.73
2022-11-03T16:28:11.630Z,1.45
2022-11-03T16:30:38.718Z,1.48
2022-11-03T16:33:05.913Z,1.13
2022-11-03T16:35:32.649Z,1.27
2022-11-03T16:37:59.312Z,0.95
2022-11-03T16:40:25.929Z,1.30
2022-11-03T16:42:52.547Z,1.08
2022-11-03T16:45:26.407Z,1.10
2022-11-03T16:47:53.434Z,1.40
2022-11-03T16:50:20.328Z,1.05
2022-11-03T16:52:48.454Z,1.23
2022-11-03T16:55:16.690Z,1.38
2022-11-03T16:57:43.660Z,1.30
2022-11-03T17:00:13.717Z,1.75
2022-11-03T17:02:40.880Z,1.30
2022-11-03T17:05:08.322Z,1.52
2022-11-03T17:07:35.095Z,1.30
2022-11-03T17:10:01.979Z,1.30
2022-11-03T17:12:28.667Z,1.42
2022-11-03T17:14:56.785Z,1.40
2022-11-03T17:17:24.078Z,1.38
2022-11-03T17:19:51.240Z,1.42
2022-11-03T17:22:18.269Z,1.60
2022-11-03T17:24:44.891Z,1.15
2022-11-03T17:27:14.036Z,1.40
2022-11-03T17:29:44.342Z,1.73
2022-11-03T17:32:15.071Z,1.60
2022-11-03T17:34:41.732Z,1.45
2022-11-03T17:37:08.684Z,1.50
2022-11-03T17:39:37.043Z,1.73
2022-11-03T17:42:21.197Z,1.40
2022-11-03T17:44:49.739Z,1.45
2022-11-03T17:47:17.566Z,1.50
2022-11-03T17:49:44.773Z,1.33
2022-11-03T17:52:23.348Z,1.83
2022-11-03T17:54:55.544Z,1.42
2022-11-03T17:57:22.874Z,1.65
2022-11-03T17:59:52.301Z,1.73
2022-11-03T18:02:24.347Z,1.98
2022-11-03T18:04:57.663Z,2.28
2022-11-03T18:07:28.902Z,1.80
2022-11-03T18:09:58.438Z,1.50
2022-11-03T18:12:55.056Z,1.58
2022-11-03T18:15:24.621Z,1.52
2022-11-03T18:17:51.879Z,1.70
2022-11-03T18:20:29.739Z,1.75
2022-11-03T18:23:17.897Z,1.60
2022-11-03T18:25:44.728Z,1.65
2022-11-03T18:28:12.196Z,1.92
2022-11-03T18:30:40.457Z,1.80
2022-11-03T18:33:15.490Z,1.58
2022-11-03T18:35:42.520Z,1.80
2022-11-03T18:38:13.091Z,1.73
2022-11-03T18:40:40.364Z,1.60
2022-11-03T18:43:20.065Z,2.05
2022-11-03T18:45:47.281Z,1.83
2022-11-03T18:48:19.347Z,1.92
2022-11-03T18:50:51.616Z,2.65
2022-11-03T18:53:20.474Z,2.15
2022-11-03T18:55:48.497Z,2.03
2022-11-03T18:58:24.657Z,2.05
2022-11-03T19:00:52.682Z,2.10
2022-11-03T19:03:21.839Z,1.80
2022-11-03T19:05:50.825Z,1.80
2022-11-03T19:08:32.413Z,2.50
2022-11-03T19:11:03.767Z,2.00
2022-11-03T19:13:34.399Z,1.73
2022-11-03T19:16:04.202Z,2.00
2022-11-03T19:18:35.470Z,2.10
2022-11-03T19:21:02.207Z,2.60
2022-11-03T19:23:28.807Z,2.28
2022-11-03T19:25:59.445Z,2.10
2022-11-03T19:28:29.481Z,1.98
2022-11-03T19:30:58.054Z,1.98
2022-11-03T19:33:27.517Z,2.53
2022-11-03T19:35:54.296Z,1.73
2022-11-03T19:38:21.381Z,2.08
2022-11-03T19:41:06.761Z,1.65
2022-11-03T19:43:34.980Z,2.13
2022-11-03T19:46:02.242Z,1.90
2022-11-03T19:48:33.060Z,2.15
2022-11-03T19:50:59.771Z,2.00
2022-11-03T19:53:28.869Z,2.13
2022-11-03T19:55:56.262Z,2.17
2022-11-03T19:58:27.444Z,2.47
2022-11-03T20:00:55.000Z,2.65
2022-11-03T20:03:22.466Z,2.10
2022-11-03T20:05:53.199Z,2.10
2022-11-03T20:08:23.266Z,2.58
2022-11-03T20:10:50.149Z,2.60
2022-11-03T20:13:20.278Z,1.95
2022-11-03T20:15:46.941Z,1.95
2022-11-03T20:18:14.209Z,2.28
2022-11-03T20:20:42.874Z,2.30
2022-11-03T20:23:28.464Z,2.20
2022-11-03T20:28:46.765Z,2.38
2022-11-03T20:31:14.778Z,2.72
2022-11-03T20:33:41.431Z,2.17
2022-11-03T20:36:15.204Z,2.10
2022-11-03T20:38:41.852Z,1.88
2022-11-03T20:41:14.127Z,2.05
2022-11-03T20:43:45.681Z,2.30
2022-11-03T20:46:33.480Z,2.30
2022-11-03T20:49:00.375Z,2.00
2022-11-03T20:51:31.684Z,2.30
2022-11-03T20:53:59.346Z,2.70
2022-11-03T20:56:28.163Z,2.70
2022-11-03T20:58:55.739Z,2.30
2022-11-03T21:01:32.899Z,2.65
2022-11-03T21:04:01.492Z,2.22
2022-11-03T21:06:32.774Z,2.55
2022-11-03T21:08:59.971Z,2.20
2022-11-03T21:11:30.633Z,2.20
2022-11-03T21:13:59.878Z,2.50
2022-11-03T21:16:46.738Z,2.42
2022-11-03T21:19:40.338Z,2.92
2022-11-03T21:22:38.345Z,2.70
2022-11-03T21:25:17.665Z,2.47
2022-11-03T21:27:44.836Z,2.55
2022-11-03T21:30:13.290Z,2.38
2022-11-03T21:32:40.062Z,2.70
2022-11-03T21:35:08.136Z,2.42
2022-11-03T21:37:34.857Z,2.33
2022-11-03T21:40:01.493Z,2.60
2022-11-03T21:42:46.691Z,2.45
2022-11-03T21:45:14.186Z,2.40
2022-11-03T21:48:00.759Z,2.50
2022-11-03T21:50:27.566Z,2.25
2022-11-03T21:52:54.140Z,2.42
2022-11-03T21:55:20.994Z,2.60
2022-11-03T21:57:47.577Z,2.55
2022-11-03T22:00:14.902Z,2.92
2022-11-03T22:02:41.499Z,2.65
2022-11-03T22:05:11.020Z,2.60
2022-11-03T22:07:37.881Z,2.53
2022-11-03T22:10:05.180Z,2.60
2022-11-03T22:12:31.844Z,2.38
2022-11-03T22:15:16.993Z,2.88
2022-11-03T22:17:46.716Z,2.22
2022-11-03T22:20:31.808Z,2.30
2022-11-03T22:23:19.890Z,2.40
2022-11-03T22:26:07.802Z,2.20
2022-11-03T22:28:34.469Z,2.13
2022-11-03T22:31:27.239Z,2.22
2022-11-03T22:34:12.792Z,2.35
2022-11-03T22:36:39.402Z,2.50
2022-11-03T22:39:24.580Z,2.38
2022-11-03T22:42:10.041Z,2.72
2022-11-03T22:44:55.420Z,2.40
2022-11-03T22:47:22.090Z,2.78
2022-11-03T22:49:48.734Z,2.20
2022-11-03T22:52:15.442Z,2.40
2022-11-03T22:54:42.035Z,2.17
2022-11-03T22:57:11.341Z,1.85
2022-11-03T22:59:37.985Z,2.08
2022-11-03T23:02:04.801Z,2.20
2022-11-03T23:04:31.491Z,1.98
2022-11-03T23:06:58.531Z,1.83
2022-11-03T23:09:25.144Z,1.90
2022-11-03T23:11:51.873Z,1.90
2022-11-03T23:14:18.487Z,1.75
2022-11-03T23:16:45.264Z,2.28
2022-11-03T23:19:33.283Z,2.00
2022-11-03T23:22:00.167Z,1.73
2022-11-03T23:24:45.674Z,1.73
2022-11-03T23:27:13.440Z,2.00
2022-11-03T23:29:40.579Z,2.33
2022-11-03T23:32:07.451Z,1.52
2022-11-03T23:34:35.038Z,2.20
2022-11-03T23:37:02.608Z,2.00
2022-11-03T23:39:29.313Z,2.20
2022-11-03T23:41:56.188Z,2.28
2022-11-03T23:44:22.836Z,2.03
2022-11-03T23:47:08.022Z,2.30
2022-11-03T23:49:34.663Z,2.42
2022-11-03T23:52:01.298Z,2.33
2022-11-03T23:54:27.979Z,2.53
2022-11-03T23:57:12.980Z,2.30
2022-11-03T23:59:39.608Z,2.28
